Time;durP1;ratioP1;P1;durP2;ratioP2;P2;SDS_P1;SDS_P2;PMS_P1;PMS_P2;Temp;Humidity;BMP_temperature;BMP_pressure;BME280_temperature;BME280_humidity;BME280_pressure;Samples;Min_cycle;Max_cycle;Signal;HPM_P1;HPM_P2
2022/02/06 00:00:01;;;;;;;3.83;1.00;;;6.10;99.90;;;;;;4994106;28;20100;-64
2022/02/06 00:02:30;;;;;;;1.73;0.95;;;6.00;99.90;;;;;;4991593;28;20116;-64
2022/02/06 00:04:56;;;;;;;4.72;1.60;;;5.90;99.90;;;;;;4995360;28;20026;-64
2022/02/06 00:07:22;;;;;;;1.05;0.80;;;5.90;99.90;;;;;;4985352;28;20406;-64
2022/02/06 00:09:48;;;;;;;1.90;0.93;;;5.90;99.90;;;;;;4990300;28;20049;-64
2022/02/06 00:12:14;;;;;;;4.45;1.20;;;5.80;99.90;;;;;;4994239;28;20029;-64
2022/02/06 00:14:40;;;;;;;1.25;0.90;;;5.90;99.90;;;;;;4995517;28;20804;-64
2022/02/06 00:17:07;;;;;;;4.15;1.50;;;5.80;99.90;;;;;;4989783;28;20079;-64
2022/02/06 00:19:33;;;;;;;2.00;1.00;;;5.80;99.90;;;;;;5012165;28;20034;-65
2022/02/06 00:22:02;;;;;;;1.30;0.98;;;5.80;99.90;;;;;;4988743;28;20033;-64
2022/02/06 00:24:38;;;;;;;5.22;1.45;;;5.70;99.90;;;;;;4990180;28;20031;-64
2022/02/06 00:27:08;;;;;;;1.00;0.80;;;5.70;99.90;;;;;;4991553;28;20485;-64
2022/02/06 00:29:48;;;;;;;0.82;0.77;;;5.70;99.90;;;;;;4995718;28;20026;-64
2022/02/06 00:32:27;;;;;;;6.32;1.15;;;5.70;99.90;;;;;;4986323;28;20125;-64
2022/02/06 00:40:27;;;;;;;2.78;1.45;;;5.80;99.90;;;;;;4983216;28;20045;-64
2022/02/06 00:42:52;;;;;;;1.88;1.08;;;5.80;99.90;;;;;;4995537;28;20030;-64
2022/02/06 00:45:18;;;;;;;11.10;2.13;;;5.80;99.90;;;;;;4987733;28;20450;-64
2022/02/06 00:47:44;;;;;;;1.50;1.13;;;5.80;99.90;;;;;;4993056;28;20058;-64
2022/02/06 00:50:10;;;;;;;4.45;1.40;;;5.80;99.90;;;;;;4992216;28;20030;-64
2022/02/06 00:52:41;;;;;;;6.43;2.50;;;5.80;99.90;;;;;;4988826;28;20513;-64
2022/02/06 00:55:06;;;;;;;4.43;1.90;;;5.90;99.90;;;;;;4984989;28;20059;-64
2022/02/06 00:57:32;;;;;;;2.20;1.02;;;6.00;99.90;;;;;;4989705;28;20624;-65
2022/02/06 00:59:58;;;;;;;0.68;0.68;;;5.90;99.90;;;;;;4989017;28;20110;-64
2022/02/06 01:02:23;;;;;;;6.63;2.45;;;5.90;99.90;;;;;;4989350;28;20034;-65
2022/02/06 01:04:50;;;;;;;3.17;1.25;;;6.00;99.90;;;;;;4980490;28;20026;-65
2022/02/06 01:07:15;;;;;;;3.10;1.50;;;6.00;99.90;;;;;;4988096;28;20042;-65
2022/02/06 01:09:41;;;;;;;8.02;1.63;;;6.00;99.90;;;;;;4998211;28;20038;-65
2022/02/06 01:12:07;;;;;;;4.13;1.20;;;6.00;99.90;;;;;;4984401;28;20093;-65
2022/02/06 01:14:45;;;;;;;3.45;1.60;;;6.00;99.90;;;;;;4982653;28;20121;-65
2022/02/06 01:17:24;;;;;;;7.35;1.92;;;6.00;99.90;;;;;;4986033;28;20040;-65
2022/02/06 01:22:24;;;;;;;4.60;2.15;;;6.10;99.90;;;;;;4987146;28;20031;-64
2022/02/06 01:25:00;;;;;;;2.50;1.38;;;6.10;99.90;;;;;;4993397;28;20133;-65
2022/02/06 01:27:37;;;;;;;2.47;1.38;;;6.10;99.90;;;;;;4992286;28;20391;-65
2022/02/06 01:30:34;;;;;;;3.90;1.75;;;6.10;99.90;;;;;;4991805;28;20031;-65
2022/02/06 01:32:58;;;;;;;2.75;1.17;;;6.10;99.90;;;;;;4992200;28;20052;-65
2022/02/06 01:36:05;;;;;;;3.80;1.58;;;6.10;99.90;;;;;;4989014;28;20085;-65
2022/02/06 01:38:25;;;;;;;1.25;0.90;;;6.10;99.90;;;;;;4991105;28;20049;-65
2022/02/06 01:41:04;;;;;;;7.25;2.28;;;6.10;99.90;;;;;;4983256;28;20121;-65
2022/02/06 01:43:41;;;;;;;5.70;2.40;;;6.30;99.90;;;;;;4998663;28;20530;-66
2022/02/06 01:57:29;;;;;;;1.75;1.00;;;6.40;99.90;;;;;;4997009;28;20102;-64
2022/02/06 02:03:02;;;;;;;2.90;1.58;;;6.40;99.90;;;;;;4995806;28;20004;-65
2022/02/06 02:26:56;;;;;;;5.65;1.85;;;6.30;99.90;;;;;;4995286;28;20036;-64
2022/02/06 02:45:10;;;;;;;2.90;1.27;;;6.20;99.90;;;;;;4989297;28;20577;-64
2022/02/06 02:47:37;;;;;;;4.45;1.80;;;6.20;99.90;;;;;;4999507;28;20030;-64
2022/02/06 02:50:10;;;;;;;5.82;1.98;;;6.20;99.90;;;;;;4990628;28;20122;-64
2022/02/06 02:58:02;;;;;;;6.05;1.95;;;6.30;99.90;;;;;;4993690;28;20057;-64
2022/02/06 03:03:16;;;;;;;5.40;2.17;;;6.30;99.90;;;;;;4993129;28;20198;-64
2022/02/06 03:05:43;;;;;;;6.55;1.17;;;6.30;99.90;;;;;;4999348;28;20037;-64
2022/02/06 03:08:09;;;;;;;3.83;1.58;;;6.30;99.90;;;;;;4993123;28;20038;-64
2022/02/06 03:10:36;;;;;;;7.75;1.50;;;6.30;99.90;;;;;;4992903;28;20026;-64
2022/02/06 03:13:06;;;;;;;3.60;1.50;;;6.30;99.90;;;;;;4989199;28;20026;-64
2022/02/06 03:15:44;;;;;;;3.38;1.30;;;6.30;99.90;;;;;;5001759;28;20022;-64
2022/02/06 03:18:21;;;;;;;2.53;1.42;;;6.30;99.90;;;;;;5003604;28;20034;-64
2022/02/06 03:20:48;;;;;;;2.10;1.27;;;6.40;99.90;;;;;;4989456;28;20053;-64
2022/02/06 03:23:15;;;;;;;2.55;1.23;;;6.40;99.90;;;;;;4993280;28;20026;-64
2022/02/06 03:25:53;;;;;;;0.80;0.73;;;6.40;99.90;;;;;;4988907;28;20057;-64
2022/02/06 03:28:23;;;;;;;4.85;2.20;;;6.40;99.90;;;;;;4995577;28;20029;-64
2022/02/06 03:30:49;;;;;;;8.80;1.33;;;6.40;99.90;;;;;;4994128;28;20053;-64
2022/02/06 03:33:15;;;;;;;15.35;2.15;;;6.40;99.90;;;;;;4993831;28;20752;-64
2022/02/06 03:35:41;;;;;;;3.95;1.52;;;6.40;99.90;;;;;;5009750;28;20033;-64
2022/02/06 03:38:08;;;;;;;1.67;0.95;;;6.30;99.90;;;;;;4992351;28;20474;-64
2022/02/06 03:40:41;;;;;;;5.28;1.58;;;6.40;99.90;;;;;;4985321;28;20026;-64
2022/02/06 03:43:14;;;;;;;5.30;1.85;;;6.40;99.90;;;;;;4985380;28;20096;-64
2022/02/06 03:45:45;;;;;;;2.53;1.40;;;6.40;99.90;;;;;;4994917;28;20031;-65
2022/02/06 03:48:27;;;;;;;;;;;6.40;99.90;;;;;;4996084;28;20023;-64
2022/02/06 03:50:55;;;;;;;6.28;1.75;;;6.40;99.90;;;;;;4990100;28;19953;-65
2022/02/06 03:53:25;;;;;;;4.47;1.80;;;6.40;99.90;;;;;;4992958;28;20121;-65
2022/02/06 03:55:52;;;;;;;1.37;0.80;;;6.50;99.90;;;;;;4998338;28;20030;-64
2022/02/06 03:58:18;;;;;;;6.80;2.53;;;6.40;99.90;;;;;;4991479;28;20049;-65
2022/02/06 04:00:44;;;;;;;4.97;1.55;;;6.50;99.90;;;;;;4989797;28;20706;-65
2022/02/06 04:03:10;;;;;;;4.30;1.63;;;6.50;99.90;;;;;;4990591;28;20022;-65
2022/02/06 04:05:37;;;;;;;6.18;1.98;;;6.50;99.90;;;;;;4987565;28;20027;-65
2022/02/06 04:08:06;;;;;;;1.42;0.80;;;6.50;99.90;;;;;;4994275;28;20036;-65
2022/02/06 04:10:40;;;;;;;7.10;1.65;;;6.50;99.90;;;;;;4984588;28;20500;-65
2022/02/06 04:13:06;;;;;;;3.50;1.50;;;6.50;99.90;;;;;;4990958;28;20102;-65
2022/02/06 04:15:41;;;;;;;7.97;2.67;;;6.50;99.90;;;;;;4990088;28;20530;-64
2022/02/06 04:18:13;;;;;;;4.22;1.75;;;6.50;99.90;;;;;;4989143;28;20022;-65
2022/02/06 04:20:39;;;;;;;2.67;1.48;;;6.50;99.90;;;;;;4985232;28;20409;-65
2022/02/06 04:23:05;;;;;;;0.80;0.77;;;6.50;99.90;;;;;;4998052;28;20031;-64
2022/02/06 04:25:30;;;;;;;3.38;1.63;;;6.50;99.90;;;;;;4987491;28;20414;-64
2022/02/06 04:27:56;;;;;;;4.00;1.25;;;6.50;99.90;;;;;;4983403;28;20082;-64
2022/02/06 04:30:21;;;;;;;2.08;1.00;;;6.50;99.90;;;;;;4984272;28;20022;-64
2022/02/06 04:32:47;;;;;;;4.00;1.17;;;6.50;99.90;;;;;;4987057;28;20046;-64
2022/02/06 04:35:17;;;;;;;3.25;1.60;;;6.50;99.90;;;;;;5001362;28;20022;-65
2022/02/06 04:38:00;;;;;;;3.25;1.58;;;6.50;99.90;;;;;;4984350;28;20030;-64
2022/02/06 04:54:26;;;;;;;5.07;1.48;;;6.50;99.90;;;;;;4986463;28;20054;-64
2022/02/06 05:18:44;;;;;;;3.28;1.10;;;6.60;99.90;;;;;;4987813;28;20466;-65
2022/02/06 05:28:56;;;;;;;2.17;1.15;;;6.70;99.90;;;;;;4982321;28;20033;-65
2022/02/06 05:33:53;;;;;;;3.40;0.70;;;6.70;99.90;;;;;;4988326;28;20029;-65
2022/02/06 05:36:19;;;;;;;3.58;1.13;;;6.70;99.90;;;;;;4986186;28;20035;-65
2022/02/06 05:38:44;;;;;;;1.58;0.90;;;6.80;99.90;;;;;;4986861;28;20035;-65
2022/02/06 05:41:10;;;;;;;4.85;1.98;;;6.80;99.90;;;;;;4985967;28;20109;-65
2022/02/06 05:43:36;;;;;;;2.10;1.25;;;6.70;99.90;;;;;;4988749;28;20447;-65
2022/02/06 05:46:05;;;;;;;2.15;1.08;;;6.80;99.90;;;;;;4989379;28;20053;-65
2022/02/06 05:48:31;;;;;;;3.72;1.30;;;6.70;99.90;;;;;;4985893;28;20027;-65
2022/02/06 05:50:59;;;;;;;1.25;0.90;;;6.70;99.90;;;;;;4987994;28;20149;-65
2022/02/06 05:53:25;;;;;;;8.90;1.65;;;6.70;99.90;;;;;;4985550;28;20018;-65
2022/02/06 05:55:51;;;;;;;6.13;1.95;;;6.70;99.90;;;;;;4989262;28;20033;-65
2022/02/06 05:58:16;;;;;;;1.15;0.88;;;6.70;99.90;;;;;;4987842;28;20038;-65
2022/02/06 06:00:42;;;;;;;2.75;1.25;;;6.70;99.90;;;;;;4987708;28;20419;-65
2022/02/06 06:03:08;;;;;;;4.20;1.75;;;6.70;99.90;;;;;;4989600;28;20514;-65
2022/02/06 06:05:35;;;;;;;1.77;1.02;;;6.70;99.90;;;;;;4986434;28;20105;-65
2022/02/06 06:08:01;;;;;;;5.03;1.70;;;6.80;99.90;;;;;;4989268;28;20023;-65
2022/02/06 06:10:27;;;;;;;2.25;1.35;;;6.70;99.90;;;;;;4985169;28;20111;-65
2022/02/06 06:12:53;;;;;;;2.92;1.30;;;6.80;99.90;;;;;;4987029;28;20439;-65
2022/02/06 06:15:18;;;;;;;2.10;1.00;;;6.80;99.90;;;;;;4983597;28;20027;-65
2022/02/06 06:17:45;;;;;;;2.67;1.35;;;6.80;99.90;;;;;;4987750;28;20030;-65
2022/02/06 06:20:15;;;;;;;1.55;1.08;;;6.80;99.90;;;;;;4989482;28;20011;-65
2022/02/06 06:22:41;;;;;;;5.88;1.85;;;6.80;99.90;;;;;;4986140;28;20027;-65
2022/02/06 06:25:08;;;;;;;2.47;1.00;;;6.80;99.90;;;;;;4988914;28;20093;-65
2022/02/06 06:27:34;;;;;;;3.88;1.67;;;6.80;99.90;;;;;;4986939;28;20015;-65
2022/02/06 06:30:00;;;;;;;3.38;1.73;;;6.80;99.90;;;;;;4992067;28;20019;-65
2022/02/06 06:32:25;;;;;;;3.03;1.63;;;6.80;99.90;;;;;;4990341;28;20061;-65
2022/02/06 06:34:53;;;;;;;3.10;1.08;;;6.90;99.90;;;;;;4984943;28;20038;-65
2022/02/06 06:37:19;;;;;;;4.05;1.60;;;6.80;99.90;;;;;;4988640;28;20022;-65
2022/02/06 06:39:47;;;;;;;2.50;1.23;;;6.80;99.90;;;;;;4982311;28;20034;-65
2022/02/06 06:42:14;;;;;;;2.35;1.25;;;6.80;99.90;;;;;;4987499;28;20403;-65
2022/02/06 06:44:41;;;;;;;2.17;1.10;;;6.80;99.90;;;;;;4987936;28;20019;-65
2022/02/06 06:47:08;;;;;;;2.70;1.50;;;6.80;99.90;;;;;;4985474;28;20022;-65
2022/02/06 06:49:34;;;;;;;2.90;1.33;;;6.80;99.90;;;;;;4987074;28;20470;-65
2022/02/06 06:52:01;;;;;;;4.93;1.42;;;6.80;99.90;;;;;;4987076;28;20157;-65
2022/02/06 06:54:35;;;;;;;4.35;1.15;;;6.80;99.90;;;;;;4985428;28;20023;-65
2022/02/06 06:57:11;;;;;;;9.98;2.03;;;6.80;99.90;;;;;;4984965;28;20482;-65
2022/02/06 07:04:41;;;;;;;3.92;1.75;;;6.90;99.90;;;;;;4997304;28;20029;-65
2022/02/06 07:07:07;;;;;;;1.30;0.80;;;6.90;99.90;;;;;;4995284;28;20050;-65
2022/02/06 07:09:33;;;;;;;3.50;1.40;;;7.00;99.90;;;;;;4987092;28;20019;-65
2022/02/06 07:11:58;;;;;;;3.45;1.33;;;6.90;99.90;;;;;;4995492;28;20030;-65
2022/02/06 07:14:27;;;;;;;0.77;0.65;;;7.00;99.90;;;;;;5004030;28;20048;-65
2022/02/06 07:16:53;;;;;;;1.85;1.10;;;6.90;99.90;;;;;;5005313;28;20046;-65
2022/02/06 07:19:19;;;;;;;2.00;0.98;;;6.90;99.90;;;;;;4987062;28;20461;-65
2022/02/06 07:21:44;;;;;;;1.05;0.73;;;6.90;99.90;;;;;;4988686;28;20061;-65
2022/02/06 07:24:10;;;;;;;6.18;1.98;;;6.90;99.90;;;;;;5003404;28;20057;-65
2022/02/06 07:26:36;;;;;;;2.67;1.27;;;6.90;99.90;;;;;;4989588;28;20077;-65
2022/02/06 07:29:02;;;;;;;1.15;0.98;;;6.90;99.90;;;;;;4995311;28;20022;-65
2022/02/06 07:31:28;;;;;;;1.65;0.90;;;7.00;99.90;;;;;;4998108;28;20050;-65
2022/02/06 07:33:54;;;;;;;2.72;1.25;;;6.90;99.90;;;;;;4996611;28;20097;-65
2022/02/06 07:36:21;;;;;;;2.17;1.08;;;6.90;99.90;;;;;;5016240;28;20455;-65
2022/02/06 07:38:47;;;;;;;3.53;1.95;;;6.90;99.90;;;;;;4983356;28;20126;-66
2022/02/06 07:41:14;;;;;;;2.30;1.38;;;6.90;99.90;;;;;;4995121;28;20021;-65
2022/02/06 07:43:39;;;;;;;4.38;1.65;;;6.90;99.90;;;;;;4998359;28;20030;-65
2022/02/06 07:46:10;;;;;;;5.47;2.05;;;6.90;99.90;;;;;;4999980;28;20497;-65
2022/02/06 07:48:36;;;;;;;6.10;2.15;;;6.90;99.90;;;;;;5001718;28;20022;-65
2022/02/06 07:51:04;;;;;;;1.63;1.02;;;6.90;99.90;;;;;;4998009;28;20422;-65
2022/02/06 07:53:31;;;;;;;4.70;1.88;;;6.90;99.90;;;;;;4996403;28;20029;-65
2022/02/06 07:55:57;;;;;;;1.45;0.90;;;7.00;99.90;;;;;;4997723;28;20021;-65
2022/02/06 07:58:22;;;;;;;1.50;1.17;;;7.00;99.90;;;;;;4996434;28;20030;-65
2022/02/06 08:00:48;;;;;;;3.25;1.63;;;7.10;99.90;;;;;;5002469;28;20497;-65
2022/02/06 08:03:14;;;;;;;4.57;1.40;;;7.00;99.90;;;;;;5000361;28;20030;-65
2022/02/06 08:05:39;;;;;;;2.70;1.42;;;7.00;99.90;;;;;;4999331;28;20108;-65
2022/02/06 08:08:12;;;;;;;5.78;2.40;;;7.00;99.90;;;;;;4992303;28;20156;-65
2022/02/06 08:10:39;;;;;;;1.65;1.08;;;7.00;99.90;;;;;;5000891;28;20160;-65
2022/02/06 08:13:12;;;;;;;3.47;1.60;;;7.00;99.90;;;;;;5000062;28;20022;-65
2022/02/06 08:15:38;;;;;;;5.35;2.03;;;7.00;99.90;;;;;;5002170;28;20109;-65
2022/02/06 08:18:07;;;;;;;6.72;2.38;;;6.90;99.90;;;;;;4997598;28;20149;-65
2022/02/06 08:20:33;;;;;;;2.17;1.20;;;7.00;99.90;;;;;;4996138;28;20100;-66
2022/02/06 08:22:59;;;;;;;1.45;1.00;;;7.00;99.90;;;;;;4983626;28;20033;-65
2022/02/06 08:25:24;;;;;;;4.63;2.22;;;7.00;99.90;;;;;;4986308;28;20030;-65
2022/02/06 08:27:50;;;;;;;5.50;2.17;;;7.00;99.90;;;;;;4992690;28;20755;-65
2022/02/06 08:30:17;;;;;;;1.85;1.05;;;7.10;99.90;;;;;;4997247;28;20019;-65
2022/02/06 08:32:42;;;;;;;3.55;1.48;;;7.10;99.90;;;;;;4991925;28;20524;-65
2022/02/06 08:35:09;;;;;;;2.90;1.15;;;7.10;99.90;;;;;;4991098;28;20023;-65
2022/02/06 08:37:35;;;;;;;4.95;1.20;;;7.10;99.90;;;;;;4986097;28;20038;-66
2022/02/06 08:40:06;;;;;;;2.20;1.00;;;7.10;99.90;;;;;;4984065;28;20035;-65
2022/02/06 08:42:31;;;;;;;;;;;7.00;99.90;;;;;;4983470;28;20030;-66
2022/02/06 08:44:57;;;;;;;0.90;0.80;;;7.10;99.90;;;;;;4988103;28;19932;-65
2022/02/06 08:47:22;;;;;;;1.80;1.00;;;7.10;99.90;;;;;;4989904;28;20081;-65
2022/02/06 08:49:49;;;;;;;1.35;0.93;;;7.10;99.90;;;;;;5001889;28;20479;-66
2022/02/06 08:52:15;;;;;;;2.92;1.10;;;7.10;99.90;;;;;;4983206;28;20031;-66
2022/02/06 08:54:40;;;;;;;1.45;0.85;;;7.20;99.90;;;;;;4989982;28;20025;-66
2022/02/06 08:57:24;;;;;;;3.40;1.65;;;7.20;99.90;;;;;;4986436;28;20030;-66
2022/02/06 08:59:51;;;;;;;1.65;1.08;;;7.20;99.90;;;;;;4998199;28;20490;-65
2022/02/06 09:02:17;;;;;;;3.95;1.20;;;7.20;99.90;;;;;;4996001;28;20017;-65
2022/02/06 09:04:44;;;;;;;4.40;1.52;;;7.20;99.90;;;;;;4988378;28;20089;-66
2022/02/06 09:07:10;;;;;;;5.07;1.45;;;7.20;99.90;;;;;;4984725;28;20757;-65
2022/02/06 09:09:40;;;;;;;8.85;1.58;;;7.30;99.90;;;;;;4983060;28;20031;-66
2022/02/06 09:12:07;;;;;;;2.90;1.25;;;7.20;99.90;;;;;;4999304;28;20021;-65
2022/02/06 09:14:33;;;;;;;3.20;1.63;;;7.20;99.90;;;;;;4996541;28;20547;-65
2022/02/06 09:16:58;;;;;;;2.75;1.10;;;7.20;99.90;;;;;;4999751;28;20101;-65
2022/02/06 09:19:24;;;;;;;2.33;1.35;;;7.20;99.90;;;;;;4998332;28;20458;-66
2022/02/06 09:21:50;;;;;;;2.67;1.30;;;7.20;99.90;;;;;;4988068;28;20113;-65
2022/02/06 09:24:16;;;;;;;0.75;0.68;;;7.20;99.90;;;;;;4985513;28;20029;-65
2022/02/06 09:26:42;;;;;;;2.08;1.02;;;7.20;99.90;;;;;;4986623;28;20014;-65
2022/02/06 09:29:08;;;;;;;1.30;0.93;;;7.20;99.90;;;;;;4981019;28;20364;-65
2022/02/06 09:31:35;;;;;;;3.35;1.23;;;7.20;99.90;;;;;;4987318;28;20027;-65
2022/02/06 09:36:27;;;;;;;3.42;1.48;;;7.20;99.90;;;;;;4999391;28;20050;-65
2022/02/06 09:38:53;;;;;;;3.00;1.23;;;7.30;99.90;;;;;;5000233;28;20038;-66
2022/02/06 09:41:19;;;;;;;5.13;2.38;;;7.30;99.90;;;;;;5002082;28;20014;-66
2022/02/06 09:43:46;;;;;;;3.35;1.42;;;7.30;99.90;;;;;;4993036;28;20023;-66
2022/02/06 09:46:14;;;;;;;2.10;1.02;;;7.30;99.90;;;;;;4987399;28;20438;-66
2022/02/06 09:48:40;;;;;;;1.05;0.82;;;7.30;99.90;;;;;;4990629;28;20127;-66
2022/02/06 09:51:07;;;;;;;1.25;0.70;;;7.30;99.90;;;;;;4998273;28;20033;-66
2022/02/06 09:53:34;;;;;;;2.05;1.00;;;7.30;99.90;;;;;;4986658;28;20035;-66
2022/02/06 09:56:07;;;;;;;2.55;1.23;;;7.30;99.90;;;;;;4999297;28;20022;-66
2022/02/06 10:01:09;;;;;;;2.53;1.10;;;7.30;99.90;;;;;;4992347;28;20029;-66
2022/02/06 10:03:40;;;;;;;0.93;0.70;;;7.30;99.90;;;;;;4997195;28;20656;-66
2022/02/06 10:06:13;;;;;;;1.83;0.93;;;7.20;99.90;;;;;;5001406;28;20039;-66
2022/02/06 10:08:40;;;;;;;0.90;0.73;;;7.20;99.90;;;;;;4994223;28;20602;-66
2022/02/06 10:11:16;;;;;;;2.53;0.85;;;7.30;99.90;;;;;;4999089;28;20069;-66
2022/02/06 10:13:46;;;;;;;2.65;1.00;;;7.20;99.90;;;;;;4987757;28;20084;-66
2022/02/06 10:16:16;;;;;;;3.42;1.15;;;7.10;99.90;;;;;;5000630;28;20025;-66
2022/02/06 10:18:44;;;;;;;2.20;1.05;;;7.10;99.90;;;;;;4990862;28;20091;-66
2022/02/06 10:21:14;;;;;;;2.83;1.15;;;7.10;99.90;;;;;;5001389;28;20371;-66
2022/02/06 10:23:48;;;;;;;1.77;0.82;;;7.10;99.90;;;;;;4999147;28;20026;-66
2022/02/06 10:26:27;;;;;;;1.95;1.05;;;7.10;99.90;;;;;;4993829;28;20061;-66
2022/02/06 10:29:23;;;;;;;0.88;0.80;;;7.20;99.90;;;;;;4996134;28;20010;-67
2022/02/06 10:32:02;;;;;;;2.88;1.02;;;7.10;99.90;;;;;;4995670;28;20019;-66
2022/02/06 10:34:30;;;;;;;1.60;0.95;;;7.10;99.90;;;;;;4992025;28;20037;-66
2022/02/06 10:37:21;;;;;;;1.98;0.95;;;7.10;99.90;;;;;;5001033;28;20034;-66
2022/02/06 10:40:06;;;;;;;2.25;0.90;;;7.10;99.90;;;;;;5005079;28;20026;-67
2022/02/06 10:42:41;;;;;;;3.30;1.08;;;7.10;99.90;;;;;;4999762;28;20092;-66
2022/02/06 10:45:18;;;;;;;0.70;0.70;;;7.00;99.90;;;;;;4999854;28;20018;-66
2022/02/06 10:47:46;;;;;;;3.05;1.20;;;7.00;99.90;;;;;;4995632;28;20033;-66
2022/02/06 10:50:14;;;;;;;1.73;1.00;;;7.10;99.90;;;;;;5000345;28;20014;-66
2022/02/06 10:52:41;;;;;;;2.35;1.05;;;7.00;99.90;;;;;;4995599;28;20441;-66
2022/02/06 10:55:09;;;;;;;1.25;0.90;;;7.00;99.90;;;;;;4993883;28;20030;-66
2022/02/06 10:57:37;;;;;;;1.48;0.90;;;6.90;99.90;;;;;;4982565;28;20030;-66
2022/02/06 11:00:06;;;;;;;1.67;0.93;;;6.90;99.90;;;;;;4991406;28;20033;-66
2022/02/06 11:02:57;;;;;;;0.60;0.60;;;6.90;99.90;;;;;;4991173;28;20030;-66
2022/02/06 11:05:33;;;;;;;1.70;0.80;;;6.90;99.90;;;;;;4991252;28;20573;-66
2022/02/06 11:08:01;;;;;;;0.75;0.73;;;6.90;99.90;;;;;;4996961;28;20052;-66
2022/02/06 11:10:35;;;;;;;1.30;0.90;;;6.90;99.90;;;;;;4983950;28;20022;-66
2022/02/06 11:13:05;;;;;;;1.13;0.77;;;6.90;99.90;;;;;;4996310;28;20406;-66
2022/02/06 11:15:35;;;;;;;0.82;0.70;;;6.80;99.90;;;;;;4992937;28;20022;-66
2022/02/06 11:18:20;;;;;;;0.95;0.80;;;6.80;99.90;;;;;;5009309;28;20038;-66
2022/02/06 11:21:07;;;;;;;0.60;0.60;;;6.80;99.90;;;;;;4992917;28;20034;-66
2022/02/06 11:23:39;;;;;;;0.70;0.70;;;6.80;99.90;;;;;;5007889;28;20510;-66
2022/02/06 11:26:13;;;;;;;1.67;0.88;;;6.80;99.90;;;;;;4991939;28;20022;-66
2022/02/06 11:28:40;;;;;;;1.77;0.90;;;6.70;99.90;;;;;;4987524;28;20044;-66
2022/02/06 11:31:06;;;;;;;2.42;0.90;;;6.70;99.90;;;;;;4994668;28;20029;-66
2022/02/06 11:33:32;;;;;;;1.25;0.80;;;6.70;99.90;;;;;;4993870;28;20022;-66
2022/02/06 11:36:05;;;;;;;0.73;0.70;;;6.70;99.90;;;;;;4993682;28;20083;-65
2022/02/06 11:45:06;;;;;;;1.05;0.82;;;6.70;99.90;;;;;;4960046;28;20042;-65
2022/02/06 11:47:46;;;;;;;0.95;0.77;;;6.70;99.90;;;;;;4993042;28;20030;-65
2022/02/06 11:50:13;;;;;;;1.53;0.90;;;6.70;99.90;;;;;;4991063;28;20045;-65
2022/02/06 11:52:51;;;;;;;0.95;0.70;;;6.70;99.90;;;;;;4982890;28;20034;-66
2022/02/06 11:55:36;;;;;;;1.38;0.90;;;6.70;99.90;;;;;;4992557;28;20026;-66
2022/02/06 11:58:26;;;;;;;3.22;1.27;;;6.70;99.90;;;;;;4993162;28;20498;-66
2022/02/06 12:01:07;;;;;;;;;;;6.70;99.90;;;;;;4981471;28;20574;-66
2022/02/06 12:03:59;;;;;;;1.90;1.00;;;6.60;99.90;;;;;;4984434;28;19916;-66
2022/02/06 12:06:37;;;;;;;2.55;0.73;;;6.60;99.90;;;;;;4981448;28;20060;-66
2022/02/06 12:09:02;;;;;;;0.75;0.70;;;6.60;99.90;;;;;;4984347;28;20045;-65
2022/02/06 12:11:36;;;;;;;1.23;0.80;;;6.60;99.90;;;;;;4984216;28;20018;-65
2022/02/06 12:14:11;;;;;;;2.17;1.02;;;6.60;99.90;;;;;;4983872;28;20050;-65
2022/02/06 12:16:45;;;;;;;1.17;0.80;;;6.60;99.90;;;;;;4996876;28;20600;-66
2022/02/06 12:19:25;;;;;;;0.50;0.50;;;6.60;99.90;;;;;;4979933;28;20027;-66
2022/02/06 12:21:51;;;;;;;1.00;0.80;;;6.60;99.90;;;;;;4981902;28;20077;-66
2022/02/06 12:24:37;;;;;;;0.70;0.68;;;6.60;99.90;;;;;;4988058;28;20026;-65
2022/02/06 12:27:22;;;;;;;1.08;0.80;;;6.60;99.90;;;;;;4987523;28;20030;-66
2022/02/06 12:29:59;;;;;;;0.88;0.70;;;6.60;99.90;;;;;;4992687;28;20027;-66
2022/02/06 12:32:34;;;;;;;0.60;0.60;;;6.60;99.90;;;;;;4993170;28;20371;-66
2022/02/06 12:37:46;;;;;;;0.60;0.60;;;6.60;99.90;;;;;;4992364;28;20096;-66
2022/02/06 12:40:16;;;;;;;0.70;0.70;;;6.70;99.90;;;;;;4992502;28;20022;-66
2022/02/06 12:42:46;;;;;;;0.88;0.70;;;6.70;99.90;;;;;;4993877;28;20038;-66
2022/02/06 12:45:15;;;;;;;0.68;0.60;;;6.70;99.90;;;;;;4988798;28;20110;-65
2022/02/06 12:47:54;;;;;;;0.63;0.63;;;6.70;99.90;;;;;;4991360;28;20024;-66
2022/02/06 12:50:21;;;;;;;0.68;0.65;;;6.80;99.90;;;;;;4988281;28;20032;-65
2022/02/06 12:52:47;;;;;;;0.82;0.70;;;6.90;99.90;;;;;;4989018;28;20026;-66
2022/02/06 12:55:14;;;;;;;1.45;0.80;;;6.90;99.90;;;;;;4993492;28;20037;-66
2022/02/06 12:57:53;;;;;;;1.80;0.90;;;6.90;99.90;;;;;;4989054;28;20573;-65
2022/02/06 13:00:33;;;;;;;0.93;0.80;;;6.90;99.90;;;;;;4992693;28;20029;-66
2022/02/06 13:03:20;;;;;;;0.60;0.60;;;6.90;99.90;;;;;;4988718;28;20058;-66
2022/02/06 13:05:58;;;;;;;1.05;0.75;;;7.00;99.90;;;;;;4990857;28;20076;-66
2022/02/06 13:08:24;;;;;;;1.65;0.98;;;7.10;99.90;;;;;;4989626;28;20034;-66
2022/02/06 13:11:06;;;;;;;0.90;0.80;;;7.10;99.90;;;;;;4990443;28;20079;-66
2022/02/06 13:16:15;;;;;;;2.45;1.08;;;7.30;99.90;;;;;;4992568;28;20028;-66
2022/02/06 13:18:57;;;;;;;2.65;1.08;;;7.30;99.90;;;;;;4990399;28;20022;-66
2022/02/06 13:24:09;;;;;;;1.60;0.90;;;7.40;99.90;;;;;;4992690;28;20134;-66
2022/02/06 13:26:58;;;;;;;2.60;1.25;;;7.50;99.90;;;;;;4989999;28;20034;-66
2022/02/06 13:29:51;;;;;;;0.60;0.60;;;7.60;99.90;;;;;;4993343;28;20065;-66
2022/02/06 13:32:29;;;;;;;1.20;0.70;;;7.60;99.90;;;;;;4985758;28;20140;-65
2022/02/06 13:35:08;;;;;;;1.17;0.80;;;7.60;99.90;;;;;;4989149;28;20034;-65
2022/02/06 13:37:45;;;;;;;1.70;0.90;;;7.70;99.90;;;;;;4987574;28;20030;-65
2022/02/06 13:40:27;;;;;;;1.60;0.90;;;7.70;99.90;;;;;;4982058;28;20053;-66
2022/02/06 13:43:15;;;;;;;1.30;0.82;;;7.50;99.90;;;;;;4983632;28;20035;-65
2022/02/06 13:45:42;;;;;;;1.17;0.80;;;7.30;99.90;;;;;;4980323;28;20019;-65
2022/02/06 13:48:14;;;;;;;0.93;0.82;;;7.10;99.90;;;;;;4992227;28;20022;-65
2022/02/06 13:50:46;;;;;;;1.95;0.90;;;6.80;99.90;;;;;;4995642;28;21043;-65
2022/02/06 13:53:18;;;;;;;0.77;0.73;;;6.60;99.90;;;;;;4983177;28;20031;-65
2022/02/06 13:55:53;;;;;;;0.60;0.60;;;6.30;99.90;;;;;;4993796;28;20582;-65
2022/02/06 13:58:22;;;;;;;0.63;0.63;;;6.10;99.90;;;;;;4992296;28;20738;-65
2022/02/06 14:00:56;;;;;;;0.68;0.68;;;5.90;99.90;;;;;;4992029;28;20456;-65
2022/02/06 14:03:23;;;;;;;0.60;0.60;;;5.80;99.90;;;;;;4989250;28;20049;-66
2022/02/06 14:05:51;;;;;;;5.60;1.75;;;5.80;99.90;;;;;;4991330;28;20114;-65
2022/02/06 14:08:19;;;;;;;2.67;1.20;;;5.70;99.90;;;;;;4990093;28;20030;-65
2022/02/06 14:11:02;;;;;;;0.80;0.80;;;5.70;99.90;;;;;;4980874;28;20054;-66
2022/02/06 14:13:28;;;;;;;2.50;1.45;;;5.70;99.90;;;;;;4985942;28;20045;-66
2022/02/06 14:16:14;;;;;;;1.95;1.02;;;5.70;99.90;;;;;;4989152;28;20497;-66
2022/02/06 14:18:53;;;;;;;1.40;0.80;;;5.60;99.90;;;;;;4981902;28;20026;-66
2022/02/06 14:21:19;;;;;;;0.60;0.60;;;5.70;99.90;;;;;;4988792;28;20045;-66
2022/02/06 14:24:02;;;;;;;0.60;0.60;;;5.70;99.90;;;;;;4985806;28;20050;-66
2022/02/06 14:26:27;;;;;;;1.38;1.17;;;5.70;99.90;;;;;;4989032;28;20022;-66
2022/02/06 14:28:53;;;;;;;0.70;0.70;;;5.70;99.90;;;;;;4989693;28;21667;-66
2022/02/06 14:31:33;;;;;;;0.70;0.70;;;5.80;99.90;;;;;;4995698;28;20180;-66
2022/02/06 14:34:19;;;;;;;0.82;0.68;;;5.80;99.90;;;;;;4992726;28;20033;-66
2022/02/06 14:37:11;;;;;;;0.80;0.80;;;5.80;99.90;;;;;;4994477;28;20050;-66
2022/02/06 14:40:26;;;;;;;1.30;1.00;;;5.80;99.90;;;;;;4984266;28;20914;-65
2022/02/06 14:42:54;;;;;;;0.98;0.80;;;5.80;99.90;;;;;;4991515;28;20038;-65
2022/02/06 14:45:20;;;;;;;0.80;0.80;;;5.90;99.90;;;;;;4990424;28;20377;-65
2022/02/06 14:47:46;;;;;;;1.33;0.90;;;5.90;99.90;;;;;;4989275;28;20030;-66
2022/02/06 14:50:17;;;;;;;2.47;1.08;;;6.00;99.90;;;;;;4990096;28;20018;-66
2022/02/06 14:52:43;;;;;;;1.55;1.10;;;6.00;99.90;;;;;;4989591;28;20022;-66
2022/02/06 14:55:09;;;;;;;2.65;1.20;;;6.00;99.90;;;;;;4987127;28;20034;-66
2022/02/06 14:57:35;;;;;;;3.20;1.67;;;6.10;99.90;;;;;;4983604;28;20037;-66
2022/02/06 15:00:02;;;;;;;3.85;1.48;;;6.10;99.90;;;;;;4984584;28;20450;-65
2022/02/06 15:02:28;;;;;;;1.30;0.90;;;6.10;99.90;;;;;;4995814;28;20052;-66
2022/02/06 15:04:53;;;;;;;0.60;0.60;;;6.20;99.90;;;;;;4988113;28;20022;-66
2022/02/06 15:07:19;;;;;;;2.65;1.30;;;6.20;99.90;;;;;;4991972;28;20683;-66
2022/02/06 15:09:45;;;;;;;2.90;1.10;;;6.20;99.90;;;;;;4986869;28;20034;-66
2022/02/06 15:12:11;;;;;;;2.00;1.10;;;6.20;99.90;;;;;;4991437;28;20028;-66
2022/02/06 15:14:36;;;;;;;1.13;1.00;;;6.10;99.90;;;;;;4987949;28;20498;-66
2022/02/06 15:17:02;;;;;;;2.42;1.05;;;6.10;99.90;;;;;;4984577;28;20030;-65
2022/02/06 15:19:37;;;;;;;1.17;0.90;;;6.10;99.90;;;;;;4991398;28;20022;-65
2022/02/06 15:22:03;;;;;;;1.73;1.00;;;6.10;99.90;;;;;;4981288;28;20033;-65
2022/02/06 15:24:29;;;;;;;2.03;0.88;;;6.10;99.90;;;;;;4987168;28;20084;-65
2022/02/06 15:26:55;;;;;;;1.40;0.90;;;6.10;99.90;;;;;;4990316;28;20031;-65
2022/02/06 15:29:21;;;;;;;3.10;1.42;;;6.10;99.90;;;;;;4991605;28;20022;-65
2022/02/06 15:31:47;;;;;;;1.20;1.10;;;6.10;99.90;;;;;;4989568;28;20038;-65